sensor_id;sensor_type;location;lat;lon;timestamp;pressure;altitude;pressure_sealevel;temperature;humidity
76424;BME280;65257;52.104;4.268;2023-07-13T00:02:19;101960.16;;;17.72;100.00
76424;BME280;65257;52.104;4.268;2023-07-13T00:04:47;101971.41;;;17.73;100.00
76424;BME280;65257;52.104;4.268;2023-07-13T00:07:16;101974.72;;;17.67;100.00
76424;BME280;65257;52.104;4.268;2023-07-13T00:09:46;101960.16;;;17.72;100.00
76424;BME280;65257;52.104;4.268;2023-07-13T00:12:32;101963.75;;;17.77;100.00
76424;BME280;65257;52.104;4.268;2023-07-13T00:15:05;101947.44;;;17.81;100.00
76424;BME280;65257;52.104;4.268;2023-07-13T00:17:34;101930.75;;;17.69;100.00
76424;BME280;65257;52.104;4.268;2023-07-13T00:20:03;101922.25;;;17.74;100.00
76424;BME280;65257;52.104;4.268;2023-07-13T00:22:29;101914.84;;;17.89;100.00
76424;BME280;65257;52.104;4.268;2023-07-13T00:24:54;101891.47;;;17.86;100.00
76424;BME280;65257;52.104;4.268;2023-07-13T00:27:23;101874.31;;;17.91;100.00
76424;BME280;65257;52.104;4.268;2023-07-13T00:29:58;101855.47;;;17.98;100.00
76424;BME280;65257;52.104;4.268;2023-07-13T00:32:23;101836.50;;;17.99;100.00
76424;BME280;65257;52.104;4.268;2023-07-13T00:34:52;101843.22;;;17.91;100.00
76424;BME280;65257;52.104;4.268;2023-07-13T00:37:18;101857.13;;;17.95;100.00
76424;BME280;65257;52.104;4.268;2023-07-13T00:39:44;101852.56;;;17.85;100.00
76424;BME280;65257;52.104;4.268;2023-07-13T00:42:10;101831.59;;;17.71;100.00
76424;BME280;65257;52.104;4.268;2023-07-13T00:44:36;101810.81;;;17.68;100.00
76424;BME280;65257;52.104;4.268;2023-07-13T00:47:01;101777.00;;;17.62;100.00
76424;BME280;65257;52.104;4.268;2023-07-13T00:49:39;101737.34;;;17.63;100.00
76424;BME280;65257;52.104;4.268;2023-07-13T00:52:07;101704.59;;;17.65;100.00
76424;BME280;65257;52.104;4.268;2023-07-13T00:54:47;101692.44;;;17.61;100.00
76424;BME280;65257;52.104;4.268;2023-07-13T00:57:18;101680.47;;;17.66;100.00
76424;BME280;65257;52.104;4.268;2023-07-13T00:59:55;101676.13;;;17.65;100.00
76424;BME280;65257;52.104;4.268;2023-07-13T01:02:26;101683.81;;;17.62;100.00
76424;BME280;65257;52.104;4.268;2023-07-13T01:04:56;101718.34;;;17.61;100.00
76424;BME280;65257;52.104;4.268;2023-07-13T01:07:23;101738.06;;;17.56;100.00
76424;BME280;65257;52.104;4.268;2023-07-13T01:09:49;101760.28;;;17.48;100.00
76424;BME280;65257;52.104;4.268;2023-07-13T01:12:14;101762.88;;;17.48;100.00
76424;BME280;65257;52.104;4.268;2023-07-13T01:14:43;101776.72;;;17.50;100.00
76424;BME280;65257;52.104;4.268;2023-07-13T01:17:10;101793.94;;;17.48;100.00
76424;BME280;65257;52.104;4.268;2023-07-13T01:19:42;101810.16;;;17.41;100.00
76424;BME280;65257;52.104;4.268;2023-07-13T01:22:17;101813.66;;;17.43;100.00
76424;BME280;65257;52.104;4.268;2023-07-13T01:24:47;101813.47;;;17.35;100.00
76424;BME280;65257;52.104;4.268;2023-07-13T01:27:17;101837.78;;;17.42;100.00
76424;BME280;65257;52.104;4.268;2023-07-13T01:29:45;101858.53;;;17.45;100.00
76424;BME280;65257;52.104;4.268;2023-07-13T01:32:15;101866.38;;;17.48;100.00
76424;BME280;65257;52.104;4.268;2023-07-13T01:34:41;101877.44;;;17.41;100.00
76424;BME280;65257;52.104;4.268;2023-07-13T01:37:08;101882.78;;;17.48;100.00
76424;BME280;65257;52.104;4.268;2023-07-13T01:39:37;101895.94;;;17.56;100.00
76424;BME280;65257;52.104;4.268;2023-07-13T01:42:03;101899.16;;;17.49;100.00
76424;BME280;65257;52.104;4.268;2023-07-13T01:44:32;101906.81;;;17.43;100.00
76424;BME280;65257;52.104;4.268;2023-07-13T01:46:58;101916.38;;;17.47;100.00
76424;BME280;65257;52.104;4.268;2023-07-13T01:49:23;101931.81;;;17.44;100.00
76424;BME280;65257;52.104;4.268;2023-07-13T01:51:52;101942.13;;;17.41;100.00
76424;BME280;65257;52.104;4.268;2023-07-13T01:54:17;101952.53;;;17.44;100.00
76424;BME280;65257;52.104;4.268;2023-07-13T01:56:45;101973.91;;;17.37;100.00
76424;BME280;65257;52.104;4.268;2023-07-13T01:59:11;101989.44;;;17.37;100.00
76424;BME280;65257;52.104;4.268;2023-07-13T02:01:37;102005.88;;;17.39;100.00
76424;BME280;65257;52.104;4.268;2023-07-13T02:04:02;102019.69;;;17.38;100.00
76424;BME280;65257;52.104;4.268;2023-07-13T02:06:31;102043.97;;;17.43;100.00
76424;BME280;65257;52.104;4.268;2023-07-13T02:08:58;102069.94;;;17.47;100.00
76424;BME280;65257;52.104;4.268;2023-07-13T02:11:27;102077.53;;;17.41;100.00
76424;BME280;65257;52.104;4.268;2023-07-13T02:13:59;102083.66;;;17.43;100.00
76424;BME280;65257;52.104;4.268;2023-07-13T02:16:51;102100.09;;;17.45;100.00
76424;BME280;65257;52.104;4.268;2023-07-13T02:19:16;102121.81;;;17.50;100.00
76424;BME280;65257;52.104;4.268;2023-07-13T02:21:42;102116.56;;;17.49;100.00
76424;BME280;65257;52.104;4.268;2023-07-13T02:24:08;102140.81;;;17.51;100.00
76424;BME280;65257;52.104;4.268;2023-07-13T02:26:34;102158.03;;;17.50;100.00
76424;BME280;65257;52.104;4.268;2023-07-13T02:28:59;102173.44;;;17.46;100.00
76424;BME280;65257;52.104;4.268;2023-07-13T02:31:25;102190.59;;;17.42;100.00
76424;BME280;65257;52.104;4.268;2023-07-13T02:33:51;102211.25;;;17.41;100.00
76424;BME280;65257;52.104;4.268;2023-07-13T02:36:17;102239.00;;;17.46;100.00
76424;BME280;65257;52.104;4.268;2023-07-13T02:38:43;102269.19;;;17.46;100.00
76424;BME280;65257;52.104;4.268;2023-07-13T02:41:09;102380.38;;;17.43;100.00
76424;BME280;65257;52.104;4.268;2023-07-13T02:43:37;102407.16;;;17.43;100.00
76424;BME280;65257;52.104;4.268;2023-07-13T02:46:02;102429.44;;;17.40;100.00
76424;BME280;65257;52.104;4.268;2023-07-13T02:48:41;102455.38;;;17.41;100.00
76424;BME280;65257;52.104;4.268;2023-07-13T02:51:27;102461.31;;;17.39;100.00
76424;BME280;65257;52.104;4.268;2023-07-13T02:53:52;102479.44;;;17.39;100.00
76424;BME280;65257;52.104;4.268;2023-07-13T02:56:23;102505.41;;;17.42;100.00
76424;BME280;65257;52.104;4.268;2023-07-13T02:58:49;102549.19;;;17.36;100.00
76424;BME280;65257;52.104;4.268;2023-07-13T03:01:16;102575.19;;;17.39;100.00
76424;BME280;65257;52.104;4.268;2023-07-13T03:03:59;102607.09;;;17.38;100.00
76424;BME280;65257;52.104;4.268;2023-07-13T03:06:31;102644.00;;;17.34;100.00
76424;BME280;65257;52.104;4.268;2023-07-13T03:08:57;102669.97;;;17.35;100.00
76424;BME280;65257;52.104;4.268;2023-07-13T03:11:22;102712.22;;;17.36;100.00
76424;BME280;65257;52.104;4.268;2023-07-13T03:13:48;102756.13;;;17.33;100.00
76424;BME280;65257;52.104;4.268;2023-07-13T03:16:20;102770.59;;;17.28;100.00
76424;BME280;65257;52.104;4.268;2023-07-13T03:18:55;102799.16;;;17.31;100.00
76424;BME280;65257;52.104;4.268;2023-07-13T03:21:30;102793.16;;;17.32;100.00
76424;BME280;65257;52.104;4.268;2023-07-13T03:23:55;102832.13;;;17.35;100.00
76424;BME280;65257;52.104;4.268;2023-07-13T03:26:21;102818.28;;;17.34;100.00
76424;BME280;65257;52.104;4.268;2023-07-13T03:28:47;102817.91;;;17.46;100.00
76424;BME280;65257;52.104;4.268;2023-07-13T03:31:28;102812.53;;;17.41;100.00
76424;BME280;65257;52.104;4.268;2023-07-13T03:33:59;102807.88;;;17.33;100.00
76424;BME280;65257;52.104;4.268;2023-07-13T03:36:29;102807.31;;;17.40;100.00
76424;BME280;65257;52.104;4.268;2023-07-13T03:39:02;102813.16;;;17.36;100.00
76424;BME280;65257;52.104;4.268;2023-07-13T03:41:34;102804.00;;;17.44;100.00
76424;BME280;65257;52.104;4.268;2023-07-13T03:44:09;102800.41;;;17.40;100.00
76424;BME280;65257;52.104;4.268;2023-07-13T03:46:34;102784.69;;;17.36;100.00
76424;BME280;65257;52.104;4.268;2023-07-13T03:49:00;102784.91;;;17.40;100.00
76424;BME280;65257;52.104;4.268;2023-07-13T03:51:25;102781.72;;;17.47;100.00
76424;BME280;65257;52.104;4.268;2023-07-13T03:53:51;102778.94;;;17.43;100.00
76424;BME280;65257;52.104;4.268;2023-07-13T03:56:25;102773.53;;;17.37;100.00
76424;BME280;65257;52.104;4.268;2023-07-13T03:58:50;102765.75;;;17.37;100.00
76424;BME280;65257;52.104;4.268;2023-07-13T04:01:20;102769.41;;;17.42;100.00
76424;BME280;65257;52.104;4.268;2023-07-13T04:03:47;102760.53;;;17.35;100.00
76424;BME280;65257;52.104;4.268;2023-07-13T04:06:22;102738.94;;;17.35;100.00
76424;BME280;65257;52.104;4.268;2023-07-13T04:08:51;102709.63;;;17.36;100.00
76424;BME280;65257;52.104;4.268;2023-07-13T04:11:18;102701.31;;;17.43;100.00
76424;BME280;65257;52.104;4.268;2023-07-13T04:13:45;102697.19;;;17.48;100.00
76424;BME280;65257;52.104;4.268;2023-07-13T04:16:15;102682.47;;;17.47;100.00
76424;BME280;65257;52.104;4.268;2023-07-13T04:18:46;102648.66;;;17.42;100.00
76424;BME280;65257;52.104;4.268;2023-07-13T04:21:12;102622.22;;;17.51;100.00
76424;BME280;65257;52.104;4.268;2023-07-13T04:23:40;102616.22;;;17.52;100.00
76424;BME280;65257;52.104;4.268;2023-07-13T04:26:07;102590.47;;;17.55;100.00
76424;BME280;65257;52.104;4.268;2023-07-13T04:28:41;102569.72;;;17.54;100.00
76424;BME280;65257;52.104;4.268;2023-07-13T04:31:07;102542.81;;;17.50;100.00
76424;BME280;65257;52.104;4.268;2023-07-13T04:33:32;102520.69;;;17.58;100.00
76424;BME280;65257;52.104;4.268;2023-07-13T04:36:03;102513.94;;;17.63;100.00
76424;BME280;65257;52.104;4.268;2023-07-13T04:38:31;102504.31;;;17.59;100.00
76424;BME280;65257;52.104;4.268;2023-07-13T04:41:12;102493.00;;;17.82;100.00
76424;BME280;65257;52.104;4.268;2023-07-13T04:43:38;102472.03;;;18.01;100.00
76424;BME280;65257;52.104;4.268;2023-07-13T04:46:18;102429.47;;;18.22;100.00
76424;BME280;65257;52.104;4.268;2023-07-13T04:48:52;102378.59;;;18.25;100.00
76424;BME280;65257;52.104;4.268;2023-07-13T04:51:25;102312.03;;;18.23;100.00
76424;BME280;65257;52.104;4.268;2023-07-13T04:53:58;102217.59;;;18.13;100.00
76424;BME280;65257;52.104;4.268;2023-07-13T04:56:30;102186.38;;;18.07;100.00
76424;BME280;65257;52.104;4.268;2023-07-13T04:59:00;102182.47;;;18.23;100.00
76424;BME280;65257;52.104;4.268;2023-07-13T05:01:30;102173.63;;;18.14;100.00
76424;BME280;65257;52.104;4.268;2023-07-13T05:03:57;102165.16;;;18.22;100.00
76424;BME280;65257;52.104;4.268;2023-07-13T05:06:27;102168.59;;;18.21;100.00
76424;BME280;65257;52.104;4.268;2023-07-13T05:08:53;102156.28;;;18.12;100.00
76424;BME280;65257;52.104;4.268;2023-07-13T05:11:20;102146.03;;;18.17;100.00
76424;BME280;65257;52.104;4.268;2023-07-13T05:13:47;102151.44;;;18.26;100.00
76424;BME280;65257;52.104;4.268;2023-07-13T05:16:12;102147.00;;;18.20;100.00
76424;BME280;65257;52.104;4.268;2023-07-13T05:18:41;102133.91;;;18.15;100.00
76424;BME280;65257;52.104;4.268;2023-07-13T05:21:08;102138.09;;;18.10;100.00
76424;BME280;65257;52.104;4.268;2023-07-13T05:23:35;102147.78;;;18.18;100.00
76424;BME280;65257;52.104;4.268;2023-07-13T05:26:02;102149.59;;;18.22;100.00
76424;BME280;65257;52.104;4.268;2023-07-13T05:28:29;102161.66;;;18.20;100.00
76424;BME280;65257;52.104;4.268;2023-07-13T05:30:55;102149.59;;;18.22;100.00
76424;BME280;65257;52.104;4.268;2023-07-13T05:33:24;102132.38;;;18.24;100.00
76424;BME280;65257;52.104;4.268;2023-07-13T05:35:50;102124.72;;;18.28;100.00
76424;BME280;65257;52.104;4.268;2023-07-13T05:38:22;102131.72;;;18.31;100.00
76424;BME280;65257;52.104;4.268;2023-07-13T05:40:54;102125.03;;;18.42;100.00
76424;BME280;65257;52.104;4.268;2023-07-13T05:43:22;102108.84;;;18.49;100.00
76424;BME280;65257;52.104;4.268;2023-07-13T05:45:54;102082.00;;;18.47;100.00
76424;BME280;65257;52.104;4.268;2023-07-13T05:48:25;102086.63;;;18.60;100.00
76424;BME280;65257;52.104;4.268;2023-07-13T05:50:51;102079.88;;;18.68;100.00
76424;BME280;65257;52.104;4.268;2023-07-13T05:53:16;102057.00;;;18.89;100.00
76424;BME280;65257;52.104;4.268;2023-07-13T05:55:46;102045.97;;;18.99;100.00
76424;BME280;65257;52.104;4.268;2023-07-13T05:58:25;102036.84;;;18.76;100.00
76424;BME280;65257;52.104;4.268;2023-07-13T06:01:08;102029.63;;;18.61;100.00
76424;BME280;65257;52.104;4.268;2023-07-13T06:03:36;102022.38;;;18.47;100.00
76424;BME280;65257;52.104;4.268;2023-07-13T06:06:08;102012.59;;;18.35;100.00
76424;BME280;65257;52.104;4.268;2023-07-13T06:08:40;102036.63;;;18.67;100.00
76424;BME280;65257;52.104;4.268;2023-07-13T06:11:27;102049.16;;;19.28;100.00
76424;BME280;65257;52.104;4.268;2023-07-13T06:13:58;102022.03;;;20.11;100.00
76424;BME280;65257;52.104;4.268;2023-07-13T06:16:23;101962.50;;;20.97;100.00
76424;BME280;65257;52.104;4.268;2023-07-13T06:18:55;101856.63;;;20.93;100.00
76424;BME280;65257;52.104;4.268;2023-07-13T06:21:24;101828.28;;;21.23;100.00
76424;BME280;65257;52.104;4.268;2023-07-13T06:23:52;101787.59;;;21.40;100.00
76424;BME280;65257;52.104;4.268;2023-07-13T06:26:22;101779.06;;;21.71;100.00
76424;BME280;65257;52.104;4.268;2023-07-13T06:28:48;101747.66;;;21.38;100.00
76424;BME280;65257;52.104;4.268;2023-07-13T06:31:14;101756.03;;;20.98;100.00
76424;BME280;65257;52.104;4.268;2023-07-13T06:33:41;101779.44;;;20.09;100.00
76424;BME280;65257;52.104;4.268;2023-07-13T06:36:08;101819.34;;;20.14;100.00
76424;BME280;65257;52.104;4.268;2023-07-13T06:38:35;101849.75;;;20.21;100.00
76424;BME280;65257;52.104;4.268;2023-07-13T06:41:00;101855.09;;;21.16;100.00
76424;BME280;65257;52.104;4.268;2023-07-13T06:43:31;101831.22;;;20.66;100.00
76424;BME280;65257;52.104;4.268;2023-07-13T06:45:58;101844.25;;;20.71;100.00
76424;BME280;65257;52.104;4.268;2023-07-13T06:48:24;101842.44;;;20.60;100.00
76424;BME280;65257;52.104;4.268;2023-07-13T06:50:50;101826.75;;;20.51;100.00
76424;BME280;65257;52.104;4.268;2023-07-13T06:53:20;101835.81;;;20.15;100.00
76424;BME280;65257;52.104;4.268;2023-07-13T06:55:49;101858.59;;;20.31;100.00
76424;BME280;65257;52.104;4.268;2023-07-13T06:58:17;101851.78;;;20.45;100.00
76424;BME280;65257;52.104;4.268;2023-07-13T07:00:44;101861.28;;;20.38;100.00
76424;BME280;65257;52.104;4.268;2023-07-13T07:03:10;101862.66;;;20.12;100.00
76424;BME280;65257;52.104;4.268;2023-07-13T07:05:39;101879.50;;;20.43;100.00
76424;BME280;65257;52.104;4.268;2023-07-13T07:08:05;101840.66;;;20.59;100.00
76424;BME280;65257;52.104;4.268;2023-07-13T07:10:44;101816.41;;;21.69;100.00
76424;BME280;65257;52.104;4.268;2023-07-13T07:13:14;101685.25;;;21.68;100.00
76424;BME280;65257;52.104;4.268;2023-07-13T07:15:45;101671.50;;;22.06;100.00
76424;BME280;65257;52.104;4.268;2023-07-13T07:18:13;101645.41;;;22.75;100.00
76424;BME280;65257;52.104;4.268;2023-07-13T07:20:39;101642.84;;;22.31;100.00
76424;BME280;65257;52.104;4.268;2023-07-13T07:23:09;101629.66;;;21.54;100.00
76424;BME280;65257;52.104;4.268;2023-07-13T07:25:51;101633.13;;;21.56;100.00
76424;BME280;65257;52.104;4.268;2023-07-13T07:28:17;101627.94;;;21.65;100.00
76424;BME280;65257;52.104;4.268;2023-07-13T07:30:49;101622.81;;;22.38;100.00
76424;BME280;65257;52.104;4.268;2023-07-13T07:33:18;101624.53;;;22.45;100.00
76424;BME280;65257;52.104;4.268;2023-07-13T07:35:49;101606.22;;;22.86;100.00
76424;BME280;65257;52.104;4.268;2023-07-13T07:38:17;101596.72;;;22.65;100.00
76424;BME280;65257;52.104;4.268;2023-07-13T07:40:44;101598.47;;;22.54;100.00
76424;BME280;65257;52.104;4.268;2023-07-13T07:43:11;101610.59;;;21.73;100.00
76424;BME280;65257;52.104;4.268;2023-07-13T07:45:40;101640.00;;;21.42;100.00
76424;BME280;65257;52.104;4.268;2023-07-13T07:48:07;101648.88;;;21.96;100.00
76424;BME280;65257;52.104;4.268;2023-07-13T07:50:38;101631.50;;;21.92;100.00
76424;BME280;65257;52.104;4.268;2023-07-13T07:53:06;101636.72;;;21.92;100.00
76424;BME280;65257;52.104;4.268;2023-07-13T07:55:39;101629.59;;;21.39;100.00
76424;BME280;65257;52.104;4.268;2023-07-13T07:58:06;101638.22;;;21.23;100.00
76424;BME280;65257;52.104;4.268;2023-07-13T08:00:32;101659.38;;;20.43;100.00
76424;BME280;65257;52.104;4.268;2023-07-13T08:02:58;101676.00;;;20.64;100.00
76424;BME280;65257;52.104;4.268;2023-07-13T08:05:25;101659.06;;;21.26;100.00
76424;BME280;65257;52.104;4.268;2023-07-13T08:07:51;101655.47;;;21.06;100.00
76424;BME280;65257;52.104;4.268;2023-07-13T08:10:22;101665.50;;;20.54;100.00
76424;BME280;65257;52.104;4.268;2023-07-13T08:12:48;101650.31;;;21.12;100.00
76424;BME280;65257;52.104;4.268;2023-07-13T08:15:20;101635.88;;;22.27;100.00
76424;BME280;65257;52.104;4.268;2023-07-13T08:17:49;101605.28;;;23.03;100.00
76424;BME280;65257;52.104;4.268;2023-07-13T08:20:18;101599.19;;;23.15;100.00
76424;BME280;65257;52.104;4.268;2023-07-13T08:22:47;101592.34;;;22.58;100.00
76424;BME280;65257;52.104;4.268;2023-07-13T08:25:12;101567.09;;;22.75;100.00
76424;BME280;65257;52.104;4.268;2023-07-13T08:27:43;101585.41;;;22.50;100.00
76424;BME280;65257;52.104;4.268;2023-07-13T08:30:10;101568.72;;;23.06;100.00
76424;BME280;65257;52.104;4.268;2023-07-13T08:32:37;101563.69;;;22.43;100.00
76424;BME280;65257;52.104;4.268;2023-07-13T08:35:06;101547.16;;;22.62;100.00
76424;BME280;65257;52.104;4.268;2023-07-13T08:37:32;101549.56;;;23.14;100.00
76424;BME280;65257;52.104;4.268;2023-07-13T08:39:57;101540.78;;;23.27;100.00
76424;BME280;65257;52.104;4.268;2023-07-13T08:42:37;101535.66;;;23.08;100.00
76424;BME280;65257;52.104;4.268;2023-07-13T08:47:39;101543.97;;;23.77;100.00
76424;BME280;65257;52.104;4.268;2023-07-13T08:50:14;101546.38;;;24.03;100.00
76424;BME280;65257;52.104;4.268;2023-07-13T08:52:41;101548.38;;;24.66;100.00
76424;BME280;65257;52.104;4.268;2023-07-13T08:55:33;101543.25;;;24.56;100.00
76424;BME280;65257;52.104;4.268;2023-07-13T08:58:16;101547.09;;;25.02;100.00
76424;BME280;65257;52.104;4.268;2023-07-13T09:04:07;101545.38;;;25.01;100.00
76424;BME280;65257;52.104;4.268;2023-07-13T09:12:33;101542.13;;;25.46;100.00
76424;BME280;65257;52.104;4.268;2023-07-13T09:15:02;101552.34;;;24.20;100.00
76424;BME280;65257;52.104;4.268;2023-07-13T09:17:49;101548.88;;;24.16;100.00
76424;BME280;65257;52.104;4.268;2023-07-13T09:20:26;101549.53;;;23.20;100.00
76424;BME280;65257;52.104;4.268;2023-07-13T09:22:56;101547.94;;;22.88;100.00
76424;BME280;65257;52.104;4.268;2023-07-13T09:25:30;101551.38;;;22.96;100.00
76424;BME280;65257;52.104;4.268;2023-07-13T09:28:20;101553.13;;;22.97;100.00
76424;BME280;65257;52.104;4.268;2023-07-13T09:33:30;101558.75;;;24.75;100.00
76424;BME280;65257;52.104;4.268;2023-07-13T09:35:59;101559.91;;;25.23;100.00
76424;BME280;65257;52.104;4.268;2023-07-13T09:38:28;101560.22;;;25.65;100.00
76424;BME280;65257;52.104;4.268;2023-07-13T09:41:28;101565.25;;;25.77;100.00
76424;BME280;65257;52.104;4.268;2023-07-13T09:44:12;101575.31;;;26.54;100.00
76424;BME280;65257;52.104;4.268;2023-07-13T09:46:52;101572.19;;;26.34;100.00
76424;BME280;65257;52.104;4.268;2023-07-13T09:49:35;101579.56;;;25.58;100.00
76424;BME280;65257;52.104;4.268;2023-07-13T09:52:10;101582.31;;;25.42;100.00
76424;BME280;65257;52.104;4.268;2023-07-13T09:54:37;101577.22;;;25.33;100.00
76424;BME280;65257;52.104;4.268;2023-07-13T09:57:11;101591.00;;;25.50;100.00
76424;BME280;65257;52.104;4.268;2023-07-13T09:59:48;101591.22;;;25.32;100.00
76424;BME280;65257;52.104;4.268;2023-07-13T10:02:34;101583.41;;;25.28;100.00
76424;BME280;65257;52.104;4.268;2023-07-13T10:05:06;101584.88;;;25.52;100.00
76424;BME280;65257;52.104;4.268;2023-07-13T10:07:39;101593.31;;;25.06;100.00
76424;BME280;65257;52.104;4.268;2023-07-13T10:10:19;101589.31;;;25.46;100.00
76424;BME280;65257;52.104;4.268;2023-07-13T10:12:46;101593.53;;;25.57;100.00
76424;BME280;65257;52.104;4.268;2023-07-13T10:15:24;101590.13;;;25.50;100.00
76424;BME280;65257;52.104;4.268;2023-07-13T10:17:55;101589.94;;;24.98;100.00
76424;BME280;65257;52.104;4.268;2023-07-13T10:20:21;101604.94;;;25.52;100.00
76424;BME280;65257;52.104;4.268;2023-07-13T10:22:54;101609.63;;;26.44;100.00
76424;BME280;65257;52.104;4.268;2023-07-13T10:25:38;101606.81;;;26.54;100.00
76424;BME280;65257;52.104;4.268;2023-07-13T10:28:37;101611.44;;;26.42;100.00
76424;BME280;65257;52.104;4.268;2023-07-13T10:31:06;101618.81;;;25.61;100.00
76424;BME280;65257;52.104;4.268;2023-07-13T10:33:38;101617.44;;;25.95;100.00
76424;BME280;65257;52.104;4.268;2023-07-13T10:36:39;101622.41;;;26.11;100.00
76424;BME280;65257;52.104;4.268;2023-07-13T10:39:24;101624.34;;;26.00;100.00
76424;BME280;65257;52.104;4.268;2023-07-13T10:41:59;101623.56;;;25.94;100.00
76424;BME280;65257;52.104;4.268;2023-07-13T10:44:34;101619.53;;;26.28;100.00
76424;BME280;65257;52.104;4.268;2023-07-13T10:47:17;101614.28;;;26.28;100.00
76424;BME280;65257;52.104;4.268;2023-07-13T10:49:52;101620.56;;;25.62;100.00
76424;BME280;65257;52.104;4.268;2023-07-13T10:52:47;101625.75;;;26.24;100.00
76424;BME280;65257;52.104;4.268;2023-07-13T10:55:33;101630.53;;;25.95;100.00
76424;BME280;65257;52.104;4.268;2023-07-13T10:58:28;101631.47;;;26.47;100.00
76424;BME280;65257;52.104;4.268;2023-07-13T11:01:23;101628.38;;;26.23;100.00
76424;BME280;65257;52.104;4.268;2023-07-13T11:04:00;101630.72;;;26.38;100.00
76424;BME280;65257;52.104;4.268;2023-07-13T11:08:59;101634.50;;;25.65;100.00
76424;BME280;65257;52.104;4.268;2023-07-13T11:11:41;101627.75;;;26.04;100.00
76424;BME280;65257;52.104;4.268;2023-07-13T11:14:27;101628.31;;;26.74;100.00
76424;BME280;65257;52.104;4.268;2023-07-13T11:16:53;101630.44;;;27.02;100.00
76424;BME280;65257;52.104;4.268;2023-07-13T11:25:00;101626.84;;;26.08;100.00
76424;BME280;65257;52.104;4.268;2023-07-13T11:27:41;101633.63;;;25.65;100.00
76424;BME280;65257;52.104;4.268;2023-07-13T11:33:21;101632.22;;;25.36;100.00
76424;BME280;65257;52.104;4.268;2023-07-13T11:36:04;101637.88;;;25.72;100.00
76424;BME280;65257;52.104;4.268;2023-07-13T11:38:37;101638.69;;;25.08;100.00
76424;BME280;65257;52.104;4.268;2023-07-13T11:41:18;101638.56;;;25.17;100.00
76424;BME280;65257;52.104;4.268;2023-07-13T11:43:53;101642.78;;;25.32;100.00
76424;BME280;65257;52.104;4.268;2023-07-13T11:46:27;101642.28;;;25.70;100.00
76424;BME280;65257;52.104;4.268;2023-07-13T11:48:55;101651.75;;;25.80;100.00
76424;BME280;65257;52.104;4.268;2023-07-13T11:51:33;101642.50;;;25.55;100.00
76424;BME280;65257;52.104;4.268;2023-07-13T11:54:06;101653.09;;;25.45;100.00
76424;BME280;65257;52.104;4.268;2023-07-13T11:56:36;101644.22;;;25.56;100.00
76424;BME280;65257;52.104;4.268;2023-07-13T11:59:12;101657.19;;;25.66;100.00
76424;BME280;65257;52.104;4.268;2023-07-13T12:01:56;101655.53;;;24.87;100.00
76424;BME280;65257;52.104;4.268;2023-07-13T12:04:34;101655.25;;;25.10;100.00
76424;BME280;65257;52.104;4.268;2023-07-13T12:07:11;101654.59;;;25.65;100.00
76424;BME280;65257;52.104;4.268;2023-07-13T12:09:45;101652.09;;;24.79;100.00
76424;BME280;65257;52.104;4.268;2023-07-13T12:12:19;101642.66;;;24.62;100.00
76424;BME280;65257;52.104;4.268;2023-07-13T12:14:44;101647.31;;;25.18;100.00
76424;BME280;65257;52.104;4.268;2023-07-13T12:17:19;101648.28;;;25.11;100.00
76424;BME280;65257;52.104;4.268;2023-07-13T12:19:45;101651.22;;;24.82;100.00
76424;BME280;65257;52.104;4.268;2023-07-13T12:22:13;101654.63;;;24.90;100.00
76424;BME280;65257;52.104;4.268;2023-07-13T12:24:40;101654.63;;;24.90;100.00
76424;BME280;65257;52.104;4.268;2023-07-13T12:27:28;101641.78;;;24.61;100.00
76424;BME280;65257;52.104;4.268;2023-07-13T12:30:48;101644.69;;;24.29;100.00
76424;BME280;65257;52.104;4.268;2023-07-13T12:35:24;101643.19;;;23.95;100.00
76424;BME280;65257;52.104;4.268;2023-07-13T12:37:57;101645.78;;;23.98;100.00
76424;BME280;65257;52.104;4.268;2023-07-13T12:40:31;101653.75;;;23.76;100.00
76424;BME280;65257;52.104;4.268;2023-07-13T12:43:00;101639.97;;;23.45;100.00
76424;BME280;65257;52.104;4.268;2023-07-13T12:45:29;101644.34;;;23.43;100.00
76424;BME280;65257;52.104;4.268;2023-07-13T12:48:03;101645.31;;;23.08;100.00
76424;BME280;65257;52.104;4.268;2023-07-13T12:50:41;101646.25;;;22.89;100.00
76424;BME280;65257;52.104;4.268;2023-07-13T12:53:48;101643.53;;;23.26;100.00
76424;BME280;65257;52.104;4.268;2023-07-13T12:56:42;101648.78;;;23.20;100.00
76424;BME280;65257;52.104;4.268;2023-07-13T12:59:18;101655.66;;;23.45;100.00
76424;BME280;65257;52.104;4.268;2023-07-13T13:01:45;101662.56;;;23.58;100.00
76424;BME280;65257;52.104;4.268;2023-07-13T13:04:12;101656.50;;;23.51;100.00
76424;BME280;65257;52.104;4.268;2023-07-13T13:06:39;101663.44;;;23.55;100.00
76424;BME280;65257;52.104;4.268;2023-07-13T13:09:14;101657.44;;;23.40;100.00
76424;BME280;65257;52.104;4.268;2023-07-13T13:11:52;101655.81;;;22.93;100.00
76424;BME280;65257;52.104;4.268;2023-07-13T13:14:20;101655.81;;;22.89;100.00
76424;BME280;65257;52.104;4.268;2023-07-13T13:16:48;101667.09;;;22.98;100.00
76424;BME280;65257;52.104;4.268;2023-07-13T13:21:51;101670.59;;;22.99;100.00
76424;BME280;65257;52.104;4.268;2023-07-13T13:24:21;101664.50;;;23.08;100.00
76424;BME280;65257;52.104;4.268;2023-07-13T13:26:53;101659.31;;;22.83;100.00
76424;BME280;65257;52.104;4.268;2023-07-13T13:29:23;101667.09;;;23.08;100.00
76424;BME280;65257;52.104;4.268;2023-07-13T13:31:55;101659.38;;;22.70;100.00
76424;BME280;65257;52.104;4.268;2023-07-13T13:34:22;101662.84;;;22.64;100.00